Time;durP1;ratioP1;P1;durP2;ratioP2;P2;SDS_P1;SDS_P2;PMS_P1;PMS_P2;Temp;Humidity;BMP_temperature;BMP_pressure;BME280_temperature;BME280_humidity;BME280_pressure;Samples;Min_cycle;Max_cycle;Signal;HPM_P1;HPM_P2
2023/07/13 00:01:39;;;;;;;;;;;24.20;59.40;;;;;;5077619;28;19912;-38
2023/07/13 00:04:05;;;;;;;;;;;24.10;59.60;;;;;;5084547;28;19919;-38
2023/07/13 00:06:32;;;;;;;;;;;24.10;59.80;;;;;;5084362;28;19908;-38
2023/07/13 00:08:59;;;;;;;;;;;24.10;60.00;;;;;;5080809;28;19916;-39
2023/07/13 00:11:24;;;;;;;;;;;24.10;59.80;;;;;;5085180;28;19912;-38
2023/07/13 00:13:51;;;;;;;;;;;24.10;59.90;;;;;;5084720;28;20291;-38
2023/07/13 00:16:18;;;;;;;;;;;24.10;59.80;;;;;;5084620;28;19947;-38
2023/07/13 00:18:44;;;;;;;;;;;24.00;60.50;;;;;;5084398;28;19920;-38
2023/07/13 00:21:10;;;;;;;;;;;24.00;59.90;;;;;;5084636;28;19947;-38
2023/07/13 00:23:37;;;;;;;;;;;24.00;59.70;;;;;;5084700;28;19919;-38
2023/07/13 00:26:03;;;;;;;;;;;24.00;59.70;;;;;;5084353;28;19925;-38
2023/07/13 00:28:29;;;;;;;;;;;24.00;59.30;;;;;;5078648;28;19916;-38
2023/07/13 00:30:55;;;;;;;;;;;24.00;59.10;;;;;;5084197;28;19908;-38
2023/07/13 00:33:22;;;;;;;;;;;23.90;59.30;;;;;;5081144;28;20674;-38
2023/07/13 00:35:48;;;;;;;;;;;23.90;59.30;;;;;;5076819;28;19912;-38
2023/07/13 00:38:14;;;;;;;;;;;23.90;59.60;;;;;;5084506;28;19917;-38
2023/07/13 00:40:40;;;;;;;;;;;23.90;58.90;;;;;;5084274;28;20676;-38
2023/07/13 00:43:32;;;;;;;;;;;23.90;59.20;;;;;;5084285;28;19912;-39
2023/07/13 00:45:58;;;;;;;;;;;23.80;59.20;;;;;;5079816;28;19916;-38
2023/07/13 00:48:26;;;;;;;;;;;23.80;59.60;;;;;;5081807;28;19912;-39
2023/07/13 00:50:52;;;;;;;;;;;23.80;59.80;;;;;;5066340;28;19924;-38
2023/07/13 00:53:18;;;;;;;;;;;23.80;59.80;;;;;;5065966;28;19979;-38
2023/07/13 00:55:44;;;;;;;;;;;23.80;59.80;;;;;;5082772;28;19954;-38
2023/07/13 00:58:10;;;;;;;;;;;23.80;59.60;;;;;;5078759;28;19924;-38
2023/07/13 01:00:36;;;;;;;;;;;23.70;59.40;;;;;;5076361;28;19913;-39
2023/07/13 01:03:04;;;;;;;;;;;23.70;59.50;;;;;;5084136;28;20488;-38
2023/07/13 01:05:31;;;;;;;;;;;23.70;59.60;;;;;;5083054;28;20377;-38
2023/07/13 01:07:57;;;;;;;;;;;23.70;59.60;;;;;;5083965;28;19916;-38
2023/07/13 01:10:23;;;;;;;;;;;23.70;59.20;;;;;;5083625;28;19923;-39
2023/07/13 01:12:49;;;;;;;;;;;23.60;59.20;;;;;;5083671;28;19916;-39
2023/07/13 01:15:33;;;;;;;;;;;23.60;58.90;;;;;;5083116;28;19916;-38
2023/07/13 01:18:00;;;;;;;;;;;23.60;58.80;;;;;;5078189;28;20436;-38
2023/07/13 01:20:26;;;;;;;;;;;23.60;58.80;;;;;;5063435;28;19967;-37
2023/07/13 01:22:51;;;;;;;;;;;23.60;61.40;;;;;;5077062;28;19986;-38
2023/07/13 01:25:18;;;;;;;;;;;23.60;63.10;;;;;;5064877;28;19913;-38
2023/07/13 01:27:44;;;;;;;;;;;23.50;62.80;;;;;;5079376;28;19908;-39
2023/07/13 01:30:10;;;;;;;;;;;23.50;63.10;;;;;;5079415;28;20400;-38
2023/07/13 01:32:36;;;;;;;;;;;23.50;63.30;;;;;;5082793;28;19916;-38
2023/07/13 01:35:02;;;;;;;;;;;23.50;63.50;;;;;;5083289;28;19918;-38
2023/07/13 01:37:33;;;;;;;;;;;23.50;63.60;;;;;;5080836;28;20293;-38
2023/07/13 01:39:59;;;;;;;;;;;23.60;64.00;;;;;;5083268;28;20278;-39
2023/07/13 01:42:25;;;;;;;;;;;23.60;64.20;;;;;;5082948;28;19912;-38
2023/07/13 01:44:51;;;;;;;;;;;23.60;64.60;;;;;;5083101;28;19912;-38
2023/07/13 01:47:16;;;;;;;;;;;23.60;64.90;;;;;;5083213;28;19909;-38
2023/07/13 01:49:42;;;;;;;;;;;23.60;65.10;;;;;;5083160;28;19916;-39
2023/07/13 01:52:08;;;;;;;;;;;23.60;65.30;;;;;;5081249;28;19912;-39
2023/07/13 01:54:34;;;;;;;;;;;23.70;65.70;;;;;;5082908;28;19920;-38
2023/07/13 01:57:00;;;;;;;;;;;23.70;65.90;;;;;;5081266;28;19919;-38
2023/07/13 01:59:26;;;;;;;;;;;23.70;66.00;;;;;;5076826;28;19924;-38
2023/07/13 02:01:51;;;;;;;;;;;23.70;66.20;;;;;;5076664;28;20568;-39
2023/07/13 02:04:17;;;;;;;;;;;23.70;66.40;;;;;;5082703;28;19912;-38
2023/07/13 02:06:43;;;;;;;;;;;23.70;66.50;;;;;;5082412;28;19916;-39
2023/07/13 02:09:10;;;;;;;;;;;23.80;66.80;;;;;;5076794;28;19920;-39
2023/07/13 02:11:35;;;;;;;;;;;23.80;66.90;;;;;;5082830;28;21459;-39
2023/07/13 02:14:01;;;;;;;;;;;23.80;67.00;;;;;;5083021;28;19908;-39
2023/07/13 02:16:27;;;;;;;;;;;23.80;67.10;;;;;;5082476;28;19913;-39
2023/07/13 02:18:55;;;;;;;;;;;23.80;67.20;;;;;;5083140;28;19920;-39
2023/07/13 02:21:20;;;;;;;;;;;23.90;67.30;;;;;;5082565;28;19908;-39
2023/07/13 02:23:46;;;;;;;;;;;23.90;67.40;;;;;;5082926;28;19909;-39
2023/07/13 02:26:13;;;;;;;;;;;23.90;67.50;;;;;;5084758;28;19912;-39
2023/07/13 02:28:38;;;;;;;;;;;23.90;68.20;;;;;;5086616;28;19947;-39
2023/07/13 02:31:05;;;;;;;;;;;23.90;67.50;;;;;;5086765;28;20380;-39
2023/07/13 02:33:31;;;;;;;;;;;24.00;67.60;;;;;;5083147;28;19919;-38
2023/07/13 02:35:57;;;;;;;;;;;24.00;67.70;;;;;;5085442;28;19913;-39
2023/07/13 02:38:23;;;;;;;;;;;24.00;67.80;;;;;;5086616;28;19931;-39
2023/07/13 02:40:49;;;;;;;;;;;24.00;67.90;;;;;;5086747;28;19915;-39
2023/07/13 02:43:15;;;;;;;;;;;24.00;67.90;;;;;;5086789;28;19948;-39
2023/07/13 02:45:44;;;;;;;;;;;24.00;68.00;;;;;;5084654;28;19917;-39
2023/07/13 02:48:10;;;;;;;;;;;24.10;68.20;;;;;;5067417;28;20420;-39
2023/07/13 02:50:35;;;;;;;;;;;24.10;68.40;;;;;;5086125;28;19971;-38
2023/07/13 02:53:01;;;;;;;;;;;24.10;68.40;;;;;;5086588;28;20356;-38
2023/07/13 02:55:27;;;;;;;;;;;24.10;68.50;;;;;;5085903;28;19916;-39
2023/07/13 02:57:54;;;;;;;;;;;24.10;68.40;;;;;;5086336;28;19924;-39
2023/07/13 03:00:20;;;;;;;;;;;24.10;68.40;;;;;;5085790;28;19955;-39
2023/07/13 03:02:45;;;;;;;;;;;24.10;68.40;;;;;;5086537;28;19912;-38
2023/07/13 03:05:12;;;;;;;;;;;24.10;68.40;;;;;;5086370;28;19909;-39
2023/07/13 03:07:38;;;;;;;;;;;24.10;68.40;;;;;;5078350;28;19920;-38
2023/07/13 03:10:06;;;;;;;;;;;24.20;68.50;;;;;;5086288;28;19908;-38
2023/07/13 03:12:32;;;;;;;;;;;24.20;68.50;;;;;;5086180;28;20356;-39
2023/07/13 03:14:58;;;;;;;;;;;24.20;68.40;;;;;;5085824;28;19919;-39
2023/07/13 03:17:24;;;;;;;;;;;24.20;68.50;;;;;;5085618;28;19908;-39
2023/07/13 03:19:50;;;;;;;;;;;24.20;68.60;;;;;;5085947;28;19977;-38
2023/07/13 03:22:17;;;;;;;;;;;24.20;68.70;;;;;;5085615;28;19915;-38
2023/07/13 03:24:43;;;;;;;;;;;24.20;68.70;;;;;;5085815;28;19980;-38
2023/07/13 03:27:09;;;;;;;;;;;24.30;68.80;;;;;;5085092;28;19909;-39
2023/07/13 03:29:35;;;;;;;;;;;24.30;68.80;;;;;;5079772;28;19946;-38
2023/07/13 03:32:01;;;;;;;;;;;24.30;68.90;;;;;;5084117;28;19912;-38
2023/07/13 03:34:27;;;;;;;;;;;24.30;69.00;;;;;;5083568;28;20390;-38
2023/07/13 03:36:55;;;;;;;;;;;24.30;69.10;;;;;;5083657;28;19920;-39
2023/07/13 03:39:21;;;;;;;;;;;24.30;69.00;;;;;;5085371;28;19978;-39
2023/07/13 03:41:47;;;;;;;;;;;24.30;69.10;;;;;;5085765;28;19912;-38
2023/07/13 03:44:13;;;;;;;;;;;24.30;69.10;;;;;;5085452;28;19918;-44
2023/07/13 03:46:39;;;;;;;;;;;24.30;69.10;;;;;;5082346;28;20417;-38
2023/07/13 03:49:05;;;;;;;;;;;24.30;69.10;;;;;;5082828;28;19908;-38
2023/07/13 03:51:31;;;;;;;;;;;24.30;68.90;;;;;;5084912;28;19919;-39
2023/07/13 03:53:57;;;;;;;;;;;24.30;69.00;;;;;;5085427;28;19908;-39
2023/07/13 03:56:23;;;;;;;;;;;24.30;69.00;;;;;;5085055;28;19956;-39
2023/07/13 03:58:49;;;;;;;;;;;24.30;68.90;;;;;;5074673;28;20445;-38
2023/07/13 04:01:15;;;;;;;;;;;24.40;69.00;;;;;;5085085;28;19935;-38
2023/07/13 04:03:41;;;;;;;;;;;24.40;69.10;;;;;;5085114;28;19912;-38
2023/07/13 04:06:09;;;;;;;;;;;24.40;69.10;;;;;;5084349;28;19919;-38
2023/07/13 04:08:35;;;;;;;;;;;24.40;69.30;;;;;;5075360;28;19943;-39
2023/07/13 04:11:01;;;;;;;;;;;24.40;69.30;;;;;;5085034;28;19916;-39
2023/07/13 04:13:27;;;;;;;;;;;24.40;69.30;;;;;;5066492;28;19971;-38
2023/07/13 04:15:53;;;;;;;;;;;24.40;69.40;;;;;;5084955;28;19913;-38
2023/07/13 04:18:39;;;;;;;;;;;24.40;69.40;;;;;;5084962;28;19916;-38
2023/07/13 04:21:05;;;;;;;;;;;24.40;69.50;;;;;;5035301;28;19940;-38
2023/07/13 04:23:31;;;;;;;;;;;24.40;69.50;;;;;;5038733;28;19912;-38
2023/07/13 04:25:57;;;;;;;;;;;24.40;69.50;;;;;;5040315;28;19909;-38
2023/07/13 04:28:23;;;;;;;;;;;24.40;69.50;;;;;;5039142;28;20015;-38
2023/07/13 04:30:49;;;;;;;;;;;24.40;69.40;;;;;;5019282;28;19976;-38
2023/07/13 04:33:16;;;;;;;;;;;24.40;69.40;;;;;;5016853;28;20144;-39
2023/07/13 04:35:46;;;;;;;;;;;24.40;70.00;;;;;;5032601;28;19913;-38
2023/07/13 04:38:12;;;;;;;;;;;24.40;69.20;;;;;;5024098;28;20317;-38
2023/07/13 04:40:38;;;;;;;;;;;24.40;69.20;;;;;;5027517;28;19951;-38
2023/07/13 04:43:04;;;;;;;;;;;24.40;69.20;;;;;;5040166;28;19913;-39
2023/07/13 04:45:31;;;;;;;;;;;24.50;69.30;;;;;;5025143;28;19936;-38
2023/07/13 04:47:57;;;;;;;;;;;24.50;69.20;;;;;;5035639;28;19968;-42
2023/07/13 04:50:23;;;;;;;;;;;24.50;69.30;;;;;;5025566;28;19916;-38
2023/07/13 04:52:49;;;;;;;;;;;24.50;69.40;;;;;;5029242;28;20318;-39
2023/07/13 04:55:15;;;;;;;;;;;24.50;69.40;;;;;;5025059;28;19918;-38
2023/07/13 04:57:41;;;;;;;;;;;24.50;69.60;;;;;;5038585;28;19919;-38
2023/07/13 05:00:07;;;;;;;;;;;24.50;69.60;;;;;;5083841;28;19940;-39
2023/07/13 05:02:34;;;;;;;;;;;24.50;69.70;;;;;;5065717;28;20015;-38
2023/07/13 05:05:01;;;;;;;;;;;24.50;69.80;;;;;;5083977;28;19912;-38
2023/07/13 05:07:26;;;;;;;;;;;24.50;69.80;;;;;;5083293;28;19916;-38
2023/07/13 05:09:52;;;;;;;;;;;24.50;69.80;;;;;;5084061;28;19912;-39
2023/07/13 05:12:18;;;;;;;;;;;24.50;69.70;;;;;;5083779;28;19909;-38
2023/07/13 05:14:44;;;;;;;;;;;24.50;69.60;;;;;;5083147;28;19913;-38
2023/07/13 05:17:10;;;;;;;;;;;24.50;69.50;;;;;;5083780;28;20639;-39
2023/07/13 05:19:36;;;;;;;;;;;24.50;69.40;;;;;;5083115;28;19987;-38
2023/07/13 05:22:03;;;;;;;;;;;24.50;69.30;;;;;;5083003;28;19905;-39
2023/07/13 05:24:29;;;;;;;;;;;24.50;69.00;;;;;;5082758;28;19908;-39
2023/07/13 05:26:54;;;;;;;;;;;24.50;68.70;;;;;;5084041;28;19908;-39
2023/07/13 05:29:21;;;;;;;;;;;24.50;68.70;;;;;;5083010;28;19919;-38
2023/07/13 05:31:47;;;;;;;;;;;24.50;68.90;;;;;;5081886;28;19915;-38
2023/07/13 05:34:13;;;;;;;;;;;24.50;69.20;;;;;;5083199;28;19916;-38
2023/07/13 05:36:38;;;;;;;;;;;24.50;69.60;;;;;;5081709;28;19979;-39
2023/07/13 05:39:04;;;;;;;;;;;24.50;69.70;;;;;;5082650;28;19920;-38
2023/07/13 05:41:30;;;;;;;;;;;24.50;69.90;;;;;;5081557;28;19937;-38
2023/07/13 05:43:56;;;;;;;;;;;24.50;69.90;;;;;;5080206;28;19915;-38
2023/07/13 05:46:22;;;;;;;;;;;24.50;70.00;;;;;;5082945;28;20019;-38
2023/07/13 05:48:48;;;;;;;;;;;24.50;70.10;;;;;;5083470;28;19912;-38
2023/07/13 05:51:14;;;;;;;;;;;24.50;70.10;;;;;;5083469;28;19908;-38
2023/07/13 05:53:40;;;;;;;;;;;24.50;69.90;;;;;;5082730;28;20443;-38
2023/07/13 05:56:06;;;;;;;;;;;24.50;69.60;;;;;;5083098;28;19916;-39
2023/07/13 05:58:31;;;;;;;;;;;24.50;69.30;;;;;;5082879;28;19963;-38
2023/07/13 06:01:01;;;;;;;;;;;24.50;69.10;;;;;;5078495;28;19913;-38
2023/07/13 06:03:27;;;;;;;;;;;24.50;68.80;;;;;;5080796;28;20353;-38
2023/07/13 06:05:53;;;;;;;;;;;24.50;68.80;;;;;;5083027;28;19908;-38
2023/07/13 06:08:19;;;;;;;;;;;24.50;68.80;;;;;;5082652;28;19920;-39
2023/07/13 06:10:44;;;;;;;;;;;24.50;68.80;;;;;;5083029;28;19908;-38
2023/07/13 06:13:10;;;;;;;;;;;24.50;68.80;;;;;;5083088;28;19912;-39
2023/07/13 06:15:36;;;;;;;;;;;24.50;68.80;;;;;;5082494;28;19923;-38
2023/07/13 06:18:02;;;;;;;;;;;24.50;68.80;;;;;;5082855;28;19987;-38
2023/07/13 06:20:28;;;;;;;;;;;24.50;68.90;;;;;;5082624;28;19930;-38
2023/07/13 06:22:54;;;;;;;;;;;24.50;68.90;;;;;;5083198;28;19958;-39
2023/07/13 06:25:20;;;;;;;;;;;24.50;68.90;;;;;;5082383;28;19912;-39
2023/07/13 06:27:46;;;;;;;;;;;24.50;69.00;;;;;;5082297;28;19975;-38
2023/07/13 06:30:12;;;;;;;;;;;24.50;68.90;;;;;;5078612;28;19942;-39
2023/07/13 06:32:38;;;;;;;;;;;24.50;68.80;;;;;;5082480;28;19952;-39
2023/07/13 06:35:04;;;;;;;;;;;24.50;68.80;;;;;;5082571;28;19923;-39
2023/07/13 06:37:30;;;;;;;;;;;24.50;68.80;;;;;;5075538;28;19912;-39
2023/07/13 06:39:56;;;;;;;;;;;24.50;68.80;;;;;;5077152;28;19962;-38
2023/07/13 06:42:22;;;;;;;;;;;24.50;68.80;;;;;;5064873;28;19930;-39
2023/07/13 06:44:48;;;;;;;;;;;24.50;68.80;;;;;;5082649;28;19931;-38
2023/07/13 06:47:13;;;;;;;;;;;24.50;68.80;;;;;;5082618;28;19966;-39
2023/07/13 06:49:39;;;;;;;;;;;24.50;69.00;;;;;;5080914;28;19913;-39
2023/07/13 06:52:05;;;;;;;;;;;24.50;69.00;;;;;;5082859;28;19914;-39
2023/07/13 06:54:31;;;;;;;;;;;24.40;69.30;;;;;;5082364;28;20388;-38
2023/07/13 06:56:57;;;;;;;;;;;24.50;69.90;;;;;;5082820;28;19943;-38
2023/07/13 06:59:23;;;;;;;;;;;24.50;69.90;;;;;;5081939;28;20295;-38
2023/07/13 07:01:49;;;;;;;;;;;24.50;70.10;;;;;;5082287;28;19904;-38
2023/07/13 07:04:15;;;;;;;;;;;24.50;70.20;;;;;;5082327;28;19915;-39
2023/07/13 07:06:40;;;;;;;;;;;24.50;70.40;;;;;;5074758;28;19971;-38
2023/07/13 07:09:06;;;;;;;;;;;24.40;70.20;;;;;;5082382;28;19920;-39
2023/07/13 07:11:32;;;;;;;;;;;24.40;70.00;;;;;;5083205;28;19912;-37
2023/07/13 07:13:58;;;;;;;;;;;24.40;69.60;;;;;;5086264;28;19920;-38
2023/07/13 07:16:24;;;;;;;;;;;24.40;69.40;;;;;;5085579;28;19943;-39
2023/07/13 07:18:50;;;;;;;;;;;24.40;69.20;;;;;;5085142;28;19980;-38
2023/07/13 07:21:16;;;;;;;;;;;24.40;69.20;;;;;;5085881;28;19938;-38
2023/07/13 07:23:42;;;;;;;;;;;24.40;69.00;;;;;;5085723;28;19912;-38
2023/07/13 07:26:09;;;;;;;;;;;24.40;68.90;;;;;;5085623;28;19954;-39
2023/07/13 07:28:35;;;;;;;;;;;24.40;69.70;;;;;;5079837;28;19962;-39
2023/07/13 07:31:01;;;;;;;;;;;24.40;69.00;;;;;;5083378;28;19912;-38
2023/07/13 07:33:27;;;;;;;;;;;24.40;68.90;;;;;;5083596;28;19912;-39
2023/07/13 07:35:53;;;;;;;;;;;24.40;69.10;;;;;;5082221;28;19912;-39
2023/07/13 07:38:19;;;;;;;;;;;24.40;69.20;;;;;;5080537;28;19916;-38
2023/07/13 07:40:45;;;;;;;;;;;24.40;69.80;;;;;;5082895;28;19908;-39
2023/07/13 07:43:11;;;;;;;;;;;24.40;70.00;;;;;;5084189;28;19908;-38
2023/07/13 07:45:37;;;;;;;;;;;24.40;70.20;;;;;;5084972;28;19916;-38
2023/07/13 07:48:04;;;;;;;;;;;24.40;70.10;;;;;;5085424;28;19923;-39
2023/07/13 07:50:30;;;;;;;;;;;24.40;70.10;;;;;;5085241;28;19915;-38
2023/07/13 07:52:56;;;;;;;;;;;24.40;70.10;;;;;;5085465;28;19912;-38
2023/07/13 07:55:22;;;;;;;;;;;24.40;70.20;;;;;;5084877;28;19908;-38
2023/07/13 07:57:47;;;;;;;;;;;24.40;70.20;;;;;;5083421;28;20352;-38
2023/07/13 08:00:14;;;;;;;;;;;24.40;70.10;;;;;;5081060;28;19924;-38
2023/07/13 08:02:41;;;;;;;;;;;24.40;69.90;;;;;;5084914;28;19909;-39
2023/07/13 08:05:08;;;;;;;;;;;24.40;69.80;;;;;;5085051;28;19916;-39
2023/07/13 08:07:34;;;;;;;;;;;24.40;69.70;;;;;;5081474;28;20078;-39
2023/07/13 08:10:00;;;;;;;;;;;24.40;69.60;;;;;;5085207;28;19912;-39
2023/07/13 08:12:26;;;;;;;;;;;24.30;69.60;;;;;;5084794;28;19988;-38
2023/07/13 08:14:57;;;;;;;;;;;24.30;69.60;;;;;;5084751;28;19912;-39
2023/07/13 08:17:23;;;;;;;;;;;24.30;69.50;;;;;;5084679;28;19911;-39
2023/07/13 08:19:49;;;;;;;;;;;24.30;69.60;;;;;;5077668;28;19916;-38
2023/07/13 08:22:15;;;;;;;;;;;24.30;69.60;;;;;;5084924;28;19919;-38
2023/07/13 08:24:42;;;;;;;;;;;24.30;70.00;;;;;;5083571;28;19904;-39
2023/07/13 08:27:08;;;;;;;;;;;24.30;70.10;;;;;;5084830;28;19909;-38
2023/07/13 08:29:34;;;;;;;;;;;24.30;70.20;;;;;;5084345;28;19976;-39
2023/07/13 08:32:00;;;;;;;;;;;24.30;70.30;;;;;;5084716;28;19916;-39
2023/07/13 08:34:26;;;;;;;;;;;24.30;70.40;;;;;;5082789;28;19916;-38
2023/07/13 08:36:52;;;;;;;;;;;24.30;70.30;;;;;;5084078;28;19912;-39
2023/07/13 08:39:17;;;;;;;;;;;24.30;70.30;;;;;;5084231;28;19924;-39
2023/07/13 08:41:47;;;;;;;;;;;24.30;70.40;;;;;;5083891;28;19947;-39
2023/07/13 08:44:20;;;;;;;;;;;24.30;70.30;;;;;;5084505;28;19931;-39
2023/07/13 08:46:46;;;;;;;;;;;24.30;70.20;;;;;;5066137;28;20564;-40
2023/07/13 08:49:14;;;;;;;;;;;24.30;70.10;;;;;;5082555;28;19943;-38
2023/07/13 08:51:42;;;;;;;;;;;24.30;70.00;;;;;;5083514;28;19919;-38
2023/07/13 08:54:21;;;;;;;;;;;24.30;69.90;;;;;;5084122;28;19908;-39
2023/07/13 08:56:49;;;;;;;;;;;24.30;69.90;;;;;;5083555;28;19931;-39
2023/07/13 08:59:16;;;;;;;;;;;24.30;69.90;;;;;;5078039;28;20338;-39
2023/07/13 09:01:42;;;;;;;;;;;24.30;70.00;;;;;;5083854;28;19919;-38
2023/07/13 09:04:09;;;;;;;;;;;24.30;69.90;;;;;;5084024;28;19912;-38
2023/07/13 09:06:55;;;;;;;;;;;24.30;70.10;;;;;;5064976;28;19912;-38
2023/07/13 09:09:33;;;;;;;;;;;24.30;70.20;;;;;;5059030;28;20410;-38
2023/07/13 09:12:09;;;;;;;;;;;24.30;70.20;;;;;;5080275;28;19908;-38
2023/07/13 09:14:47;;;;;;;;;;;24.30;70.30;;;;;;5083309;28;20361;-38
2023/07/13 09:17:17;;;;;;;;;;;24.30;70.30;;;;;;5065500;28;19979;-39
2023/07/13 09:19:43;;;;;;;;;;;24.30;70.40;;;;;;5083428;28;19943;-39
2023/07/13 09:22:11;;;;;;;;;;;24.30;70.40;;;;;;5065858;28;19912;-38
2023/07/13 09:24:40;;;;;;;;;;;24.20;70.50;;;;;;5065127;28;19917;-38
2023/07/13 09:27:10;;;;;;;;;;;24.20;70.40;;;;;;5082996;28;20061;-39
2023/07/13 09:29:36;;;;;;;;;;;24.20;70.40;;;;;;5077205;28;20815;-38
2023/07/13 09:32:03;;;;;;;;;;;24.20;70.40;;;;;;5083668;28;19912;-38
2023/07/13 09:34:30;;;;;;;;;;;24.20;70.40;;;;;;5083046;28;19916;-38
2023/07/13 09:36:56;;;;;;;;;;;24.20;70.30;;;;;;5074568;28;19966;-38
2023/07/13 09:39:48;;;;;;;;;;;24.20;70.30;;;;;;5083032;28;19920;-39
2023/07/13 09:42:17;;;;;;;;;;;24.20;70.30;;;;;;5077244;28;20006;-38
2023/07/13 09:44:43;;;;;;;;;;;24.20;70.30;;;;;;5079448;28;19912;-38
2023/07/13 09:47:16;;;;;;;;;;;24.20;70.30;;;;;;5078795;28;19919;-41
2023/07/13 09:49:43;;;;;;;;;;;24.20;70.40;;;;;;5083096;28;19908;-38
2023/07/13 09:52:11;;;;;;;;;;;24.20;70.50;;;;;;5083345;28;19987;-38
2023/07/13 09:54:36;;;;;;;;;;;24.20;70.60;;;;;;5083093;28;19959;-38
2023/07/13 09:57:03;;;;;;;;;;;24.20;70.60;;;;;;5083318;28;19913;-38
2023/07/13 09:59:30;;;;;;;;;;;24.20;70.70;;;;;;5076909;28;19969;-39
2023/07/13 10:01:56;;;;;;;;;;;24.20;70.70;;;;;;5082918;28;19912;-38
2023/07/13 10:04:26;;;;;;;;;;;24.10;70.70;;;;;;5082994;28;19912;-38
2023/07/13 10:06:52;;;;;;;;;;;24.10;70.70;;;;;;5057901;28;19918;-38
2023/07/13 10:09:18;;;;;;;;;;;24.10;70.80;;;;;;5064864;28;19967;-37
2023/07/13 10:11:44;;;;;;;;;;;24.10;70.60;;;;;;5083248;28;20301;-39
2023/07/13 10:14:17;;;;;;;;;;;24.10;70.60;;;;;;5083150;28;19915;-38
2023/07/13 10:16:45;;;;;;;;;;;24.10;70.50;;;;;;5076503;28;19924;-37
2023/07/13 10:19:20;;;;;;;;;;;24.10;71.30;;;;;;5082913;28;19924;-38
2023/07/13 10:21:56;;;;;;;;;;;24.10;70.50;;;;;;5064971;28;19977;-38
2023/07/13 10:24:23;;;;;;;;;;;24.10;70.50;;;;;;5082422;28;19934;-38
2023/07/13 10:27:07;;;;;;;;;;;24.10;70.50;;;;;;5082825;28;19912;-39
2023/07/13 10:29:36;;;;;;;;;;;24.10;70.40;;;;;;5058091;28;19947;-38
2023/07/13 10:32:03;;;;;;;;;;;24.10;70.50;;;;;;5058308;28;19944;-38
2023/07/13 10:34:31;;;;;;;;;;;24.10;70.70;;;;;;5082425;28;19909;-39
2023/07/13 10:36:56;;;;;;;;;;;24.10;70.70;;;;;;5082759;28;20321;-38
2023/07/13 10:39:23;;;;;;;;;;;24.10;70.70;;;;;;5064238;28;19927;-38
2023/07/13 10:41:51;;;;;;;;;;;24.10;70.80;;;;;;5054957;28;19915;-39
2023/07/13 10:44:21;;;;;;;;;;;24.10;70.80;;;;;;5061521;28;19999;-38
2023/07/13 10:46:47;;;;;;;;;;;24.10;70.80;;;;;;5058142;28;19919;-38
2023/07/13 10:49:14;;;;;;;;;;;24.10;70.90;;;;;;5086653;28;19939;-38
2023/07/13 10:51:41;;;;;;;;;;;24.10;71.00;;;;;;5068256;28;20371;-38
2023/07/13 10:54:10;;;;;;;;;;;24.10;70.90;;;;;;5086391;28;19912;-39
2023/07/13 10:56:35;;;;;;;;;;;24.10;70.80;;;;;;5083225;28;19916;-38
2023/07/13 10:59:02;;;;;;;;;;;24.00;70.80;;;;;;5085021;28;19916;-38
2023/07/13 11:01:39;;;;;;;;;;;24.00;70.80;;;;;;5060111;28;20361;-38
2023/07/13 11:04:04;;;;;;;;;;;24.00;70.70;;;;;;5068336;28;19912;-38
2023/07/13 11:06:49;;;;;;;;;;;24.00;70.80;;;;;;5060162;28;19913;-38
2023/07/13 11:09:20;;;;;;;;;;;24.00;70.70;;;;;;5086221;28;19924;-38
2023/07/13 11:11:46;;;;;;;;;;;24.00;70.80;;;;;;5086028;28;20010;-38
2023/07/13 11:14:27;;;;;;;;;;;24.00;70.70;;;;;;5085936;28;19908;-38
2023/07/13 11:16:53;;;;;;;;;;;24.00;70.80;;;;;;5086084;28;19955;-38
2023/07/13 11:19:18;;;;;;;;;;;24.00;70.90;;;;;;5085643;28;19974;-38
2023/07/13 11:22:03;;;;;;;;;;;24.00;71.00;;;;;;5086243;28;19946;-38
2023/07/13 11:24:29;;;;;;;;;;;24.00;71.00;;;;;;5085853;28;19915;-39
2023/07/13 11:26:55;;;;;;;;;;;24.00;71.10;;;;;;5085356;28;19912;-38
2023/07/13 11:29:21;;;;;;;;;;;24.00;71.10;;;;;;5066570;28;19919;-38
2023/07/13 11:31:51;;;;;;;;;;;24.00;71.20;;;;;;5085560;28;19912;-38
2023/07/13 11:34:18;;;;;;;;;;;24.00;71.10;;;;;;5067712;28;19920;-38
2023/07/13 11:36:44;;;;;;;;;;;24.00;71.30;;;;;;5084308;28;19920;-38
2023/07/13 11:39:18;;;;;;;;;;;24.00;71.10;;;;;;5067417;28;19920;-38
2023/07/13 11:41:45;;;;;;;;;;;24.00;71.10;;;;;;5081462;28;19912;-37
2023/07/13 11:44:12;;;;;;;;;;;24.00;71.10;;;;;;5083431;28;19963;-37
2023/07/13 11:46:38;;;;;;;;;;;24.00;71.00;;;;;;5067264;28;20003;-38
2023/07/13 11:49:07;;;;;;;;;;;24.00;71.10;;;;;;5085550;28;19916;-38
2023/07/13 11:51:35;;;;;;;;;;;24.00;71.00;;;;;;5085577;28;19935;-38
2023/07/13 11:54:05;;;;;;;;;;;24.00;71.10;;;;;;5067503;28;19908;-38
2023/07/13 11:56:33;;;;;;;;;;;24.00;70.90;;;;;;5084766;28;19912;-38
2023/07/13 11:59:03;;;;;;;;;;;24.00;71.00;;;;;;5083799;28;19979;-39
2023/07/13 12:01:32;;;;;;;;;;;24.00;71.20;;;;;;5084983;28;19915;-38
2023/07/13 12:04:03;;;;;;;;;;;24.00;71.20;;;;;;5085159;28;19912;-38
2023/07/13 12:06:39;;;;;;;;;;;24.00;71.30;;;;;;5059142;28;19947;-38
2023/07/13 12:09:12;;;;;;;;;;;24.00;71.40;;;;;;5081232;28;19980;-38
2023/07/13 12:11:39;;;;;;;;;;;24.00;71.40;;;;;;5084990;28;20007;-38
2023/07/13 12:14:05;;;;;;;;;;;24.00;71.50;;;;;;5084813;28;19918;-38
2023/07/13 12:16:32;;;;;;;;;;;23.90;71.40;;;;;;5084468;28;19940;-38
2023/07/13 12:19:01;;;;;;;;;;;24.00;71.50;;;;;;5084855;28;19942;-39
2023/07/13 12:21:33;;;;;;;;;;;24.00;71.50;;;;;;5083710;28;19938;-38
2023/07/13 12:24:01;;;;;;;;;;;23.90;71.40;;;;;;5084586;28;19916;-38
2023/07/13 12:26:27;;;;;;;;;;;24.00;71.40;;;;;;5084340;28;19920;-38
2023/07/13 12:29:13;;;;;;;;;;;23.90;71.20;;;;;;5084924;28;19912;-39
2023/07/13 12:31:46;;;;;;;;;;;24.00;71.30;;;;;;5002380;28;19933;-38
2023/07/13 12:34:13;;;;;;;;;;;24.00;71.10;;;;;;5002686;28;19910;-43
2023/07/13 12:36:51;;;;;;;;;;;24.00;71.10;;;;;;5000172;28;19992;-38
2023/07/13 12:39:23;;;;;;;;;;;24.00;71.20;;;;;;5002362;28;19972;-38
2023/07/13 12:41:49;;;;;;;;;;;24.00;71.50;;;;;;5002453;28;19913;-38
2023/07/13 12:44:16;;;;;;;;;;;24.00;71.70;;;;;;4986272;28;19925;-38
2023/07/13 12:47:11;;;;;;;;;;;24.00;71.90;;;;;;4991986;28;19914;-38
2023/07/13 12:49:40;;;;;;;;;;;24.00;72.80;;;;;;4974479;28;19920;-38
2023/07/13 12:52:15;;;;;;;;;;;24.00;72.20;;;;;;5002481;28;19918;-38
2023/07/13 12:54:41;;;;;;;;;;;24.00;72.30;;;;;;4981849;28;19960;-38
2023/07/13 12:57:09;;;;;;;;;;;24.00;72.10;;;;;;5002223;28;19913;-38
2023/07/13 12:59:36;;;;;;;;;;;24.00;72.10;;;;;;4987612;28;19918;-38
2023/07/13 13:02:02;;;;;;;;;;;24.00;72.10;;;;;;5002161;28;20021;-38
2023/07/13 13:04:28;;;;;;;;;;;24.00;71.90;;;;;;5001694;28;19914;-39
2023/07/13 13:07:01;;;;;;;;;;;24.00;71.90;;;;;;5001485;28;19918;-38
2023/07/13 13:09:27;;;;;;;;;;;24.00;72.00;;;;;;5059467;28;19939;-38
2023/07/13 13:11:52;;;;;;;;;;;24.00;72.10;;;;;;5084082;28;19908;-38
2023/07/13 13:14:19;;;;;;;;;;;24.00;71.80;;;;;;5083321;28;19955;-38
2023/07/13 13:17:08;;;;;;;;;;;24.00;71.80;;;;;;5083517;28;19944;-38
2023/07/13 13:19:34;;;;;;;;;;;24.00;71.90;;;;;;5041007;28;19925;-42
2023/07/13 13:21:59;;;;;;;;;;;24.00;71.90;;;;;;5040375;28;19909;-38
2023/07/13 13:24:26;;;;;;;;;;;24.00;72.00;;;;;;5040561;28;19920;-38
2023/07/13 13:26:52;;;;;;;;;;;24.10;72.30;;;;;;5041203;28;19913;-39
2023/07/13 13:29:19;;;;;;;;;;;24.10;72.30;;;;;;5035006;28;19913;-38
2023/07/13 13:31:45;;;;;;;;;;;24.10;72.30;;;;;;5040858;28;20635;-39
2023/07/13 13:34:12;;;;;;;;;;;24.10;72.30;;;;;;5040791;28;19913;-38
2023/07/13 13:36:38;;;;;;;;;;;24.10;72.30;;;;;;5035632;28;20003;-38
2023/07/13 13:39:06;;;;;;;;;;;24.10;72.30;;;;;;5038757;28;19932;-38
2023/07/13 13:41:32;;;;;;;;;;;24.10;72.40;;;;;;5040872;28;20682;-38
2023/07/13 13:43:58;;;;;;;;;;;24.10;72.40;;;;;;5041034;28;19913;-39
2023/07/13 13:46:24;;;;;;;;;;;24.10;72.40;;;;;;5037559;28;20402;-38
2023/07/13 13:48:50;;;;;;;;;;;24.20;72.60;;;;;;5040610;28;19951;-38
2023/07/13 13:51:17;;;;;;;;;;;24.20;72.70;;;;;;5040741;28;19980;-38
2023/07/13 13:53:43;;;;;;;;;;;24.20;72.90;;;;;;5040498;28;19913;-39
2023/07/13 13:56:09;;;;;;;;;;;24.20;73.00;;;;;;5054241;28;19912;-39
2023/07/13 13:58:35;;;;;;;;;;;24.30;73.20;;;;;;5082907;28;20341;-39
2023/07/13 14:01:01;;;;;;;;;;;24.30;73.30;;;;;;5083275;28;19915;-38
2023/07/13 14:03:27;;;;;;;;;;;24.30;73.50;;;;;;5082005;28;19918;-39
2023/07/13 14:05:53;;;;;;;;;;;24.30;73.50;;;;;;5076363;28;19913;-39
2023/07/13 14:08:19;;;;;;;;;;;24.30;73.50;;;;;;5082391;28;19916;-39
2023/07/13 14:10:49;;;;;;;;;;;24.30;73.40;;;;;;5083033;28;19912;-38
2023/07/13 14:13:21;;;;;;;;;;;24.40;73.50;;;;;;5083198;28;20482;-39
2023/07/13 14:15:47;;;;;;;;;;;24.40;73.40;;;;;;5082719;28;19919;-38
2023/07/13 14:18:17;;;;;;;;;;;24.40;73.40;;;;;;5082704;28;20396;-38